< < Back
Terminal Aerodrome Forecast


Current Version              Previous Versions:   1  2  3  4  5  6  7  8  9  

Terminal Aerodrome Forecast

291
FTUS42 KMLB 031120
TAFDAB
TAF
KDAB 031120Z 0312/0412 00000KT 1/2SM FG OVC005
      TEMPO 0312/0313 1/4SM FG OVC002
     FM031500 05004KT P6SM SCT005 BKN012
     FM031600 09007KT P6SM SCT020
     FM031700 09008KT P6SM SCT030
     FM040000 13003KT P6SM FEW025 SCT250
     FM040900 18003KT 2SM BR SCT006
      TEMPO 0409/0412 1SM BR BKN006=



Latest METAR

674
SAUS80 KWBC 032200
MTRDAB
METAR KDAB 032153Z 12008KT 090V150 10SM FEW025 FEW044 SCT100 25/19 A3014
RMK AO2 SLP206 T02500189


USA.gov is the U.S. government's official web portal to all federal, state and local government web resources and services.